Pittsburgh, Pennsylvania
Traffic Map
Current Weather Conditions
Pittsburgh, Pennsylvania
Overcast
Overcast

Feels Like: -5°
Wind Chill: -5° Ceiling: 1500
Heat Index: Visibility: 8mi
Dew Point: -4° Wind: 10mph
Humidity: 75% Direction: 320° (NW)
Pressure: 30.09in Gusts: 20mph
Raw Report DataKAGC 272053Z 32009G17KT 8SM BKN015 OVC025 00/M04 A3009 RMK AO2 SNB1956E17 SLP206 P0000 60000 T00001039 53013
Traffic Incident Summary
Active as of:
Severity:
Category:
InformationThere was an issue retrieving the traffic information for this location. Please try a different location or try again shortly.
Advertisements
Track Severe Weather on mobile